Liberty Pride — KRAU — position and weather

sailwx.info

Track history (hours):
 
Tides and Currents Weather Stations Pressure Air Temp Water Temp Dewpoint Dewpoint Depression Visibility Wind Speed Wind Dir Waves Ship Positions

Liberty Pride

More information available from US FCC via Universal Licensing System and Coast Guard Vessel Documentation Center.

Last reported at 2014-Aug-20 12:00 UTC. Time now 2014-Aug-21 00:30 UTC.
Position N 26°54' W 115°18'.

Length 200 m; draft 9.5 m.

Type: Cargo ship. MMSI: 368473000.

Wind from 010 at 10 knots

Waves 0.5 meters (2 feet), 4 second period

Barometer 1014.0 mb
Air temperature 20.0 ° C
Visibility: greater than 10.8 NM
Dewpoint 18.5 ° C
Water temperature 25.0 ° C

Date/timePositionNaut miles runAvg speedWind from/ knotsBaromVisibWave heightAir tempDewpointWater temp
2014-Aug-20 12:00N 26°54' W 115°18'19316.1 010 / 101014.010.8 0.520.018.525.0
2014-Aug-20 00:00N 29°54' W 116°36'8317.3 250 / 101015.010.8 0.522.015.823.0
2014-Aug-19 19:10N 31°12' W 117°09'2716.2
2014-Aug-19 17:29N 31°38' W 117°20'2914.9
2014-Aug-19 15:31N 32°05' W 117°33'1212.1
2014-Aug-19 14:33N 32°16' W 117°38'1211.8
2014-Aug-19 13:33N 32°27' W 117°43'1111.3
2014-Aug-19 12:33N 32°38' W 117°48'1111.2
2014-Aug-19 11:33N 32°48' W 117°51'1111.3
2014-Aug-19 10:33N 32°59' W 117°56'1211.7
2014-Aug-19 09:33N 33°10' W 118°01'1211.7
2014-Aug-19 08:33N 33°21' W 118°07'1211.6
2014-Aug-19 07:33N 33°31' W 118°11'1110.7
2014-Aug-19 06:33N 33°42' W 118°11'3 2.4
2014-Aug-19 05:27N 33°45' W 118°13'0 0.0
2014-Aug-19 04:33N 33°45' W 118°13'0 0.0
2014-Aug-19 03:33N 33°45' W 118°13'0 0.0
2014-Aug-19 02:33N 33°45' W 118°13'0 0.0
2014-Aug-19 01:33N 33°45' W 118°13'0 0.0
2014-Aug-19 00:33N 33°45' W 118°13'0 0.0
2014-Aug-18 23:24N 33°45' W 118°13'0 0.0
2014-Aug-18 22:27N 33°45' W 118°13'0 0.0
2014-Aug-18 21:33N 33°45' W 118°13'0 0.0
2014-Aug-18 20:27N 33°45' W 118°13'0 0.0
2014-Aug-18 19:33N 33°45' W 118°13'0 0.0
2014-Aug-18 17:24N 33°45' W 118°13'0 0.0
2014-Aug-18 16:33N 33°45' W 118°13'0 0.0
2014-Aug-18 15:30N 33°45' W 118°13'1 0.4
2014-Aug-18 12:33N 33°44' W 118°12'3 3.0
2014-Aug-18 11:30N 33°42' W 118°09'0 0.0
2014-Aug-18 10:33N 33°42' W 118°09'0 0.0
2014-Aug-18 08:12N 33°42' W 118°09'0 0.0
2014-Aug-18 07:24N 33°42' W 118°09'0 0.0
2014-Aug-18 06:33N 33°42' W 118°09'0 0.0
2014-Aug-18 05:33N 33°42' W 118°09'0 0.0
2014-Aug-18 04:24N 33°42' W 118°09'0 0.0
2014-Aug-18 03:27N 33°42' W 118°09'0 0.0
2014-Aug-18 02:24N 33°42' W 118°09'0 0.0
2014-Aug-18 01:33N 33°42' W 118°09'0 0.1
2014-Aug-18 00:24N 33°42' W 118°09'27 4.6
2014-Aug-17 18:33N 33°45' W 118°41'1211.8
2014-Aug-17 17:34N 33°51' W 118°53'1211.5
2014-Aug-17 16:33N 33°56' W 119°05'1312.6
2014-Aug-17 15:33N 34°02' W 119°19'1615.8
2014-Aug-17 14:33N 34°07' W 119°37'1615.7
2014-Aug-17 13:33N 34°11' W 119°55'1615.8
2014-Aug-17 12:33N 34°15' W 120°14'1615.8
2014-Aug-17 11:33N 34°19' W 120°32'1615.9
2014-Aug-17 10:33N 34°23' W 120°51'1615.9
2014-Aug-17 09:32N 34°27' W 121°10'1715.7
2014-Aug-17 08:27N 34°31' W 121°30'1713.8
2014-Aug-17 07:13N 34°34' W 121°50'913.8
2014-Aug-17 06:33N 34°36' W 122°01'1413.7
2014-Aug-17 05:33N 34°38' W 122°18'1615.7
2014-Aug-17 04:33N 34°41' W 122°36'1616.4
2014-Aug-17 03:33N 34°44' W 122°56'1716.5
2014-Aug-17 02:33N 34°47' W 123°16'1716.0
2014-Aug-17 01:31N 34°49' W 123°36'1515.8
2014-Aug-17 00:33N 34°52' W 123°54'1715.8
2014-Aug-16 23:28N 34°56' W 124°15'3515.7
2014-Aug-16 21:15N 35°02' W 124°56'3015.8
2014-Aug-16 19:22N 35°08' W 125°32'3015.8
2014-Aug-16 17:29N 35°15' W 126°07'65215.7
2014-Aug-15 00:00N 40°18' W 138°18'59216.4 180 / 131023.010.8 1.020.013.523.0
2014-Aug-13 12:00N 43°36' W 150°48'18615.5 190 / 191014.5 5.4 2.514.012.317.2
2014-Aug-13 00:00N 44°18' W 155°00'   200 / 191015.0 5.4 3.014.012.316.3
Track history (hours):
 
Tides and Currents Weather Stations Pressure Air Temp Water Temp Dewpoint Dewpoint Depression Visibility Wind Speed Wind Dir Waves Ship Positions

Liberty Pride

More information available from US FCC via Universal Licensing System and Coast Guard Vessel Documentation Center.

Last reported at 2014-Aug-20 12:00 UTC. Time now 2014-Aug-21 00:30 UTC.
Position N 26°54' W 115°18'.

Length 200 m; draft 9.5 m.

Type: Cargo ship. MMSI: 368473000.

Wind from 010 at 10 knots

Waves 0.5 meters (2 feet), 4 second period

Barometer 1014.0 mb
Air temperature 20.0 ° C
Visibility: greater than 10.8 NM
Dewpoint 18.5 ° C
Water temperature 25.0 ° C

Date/timePositionNaut miles runAvg speedWind from/ knotsBaromVisibWave heightAir tempDewpointWater temp
2014-Aug-20 12:00N 26°54' W 115°18'19316.1 010 / 101014.010.8 0.520.018.525.0
2014-Aug-20 00:00N 29°54' W 116°36'8317.3 250 / 101015.010.8 0.522.015.823.0
2014-Aug-19 19:10N 31°12' W 117°09'2716.2
2014-Aug-19 17:29N 31°38' W 117°20'2914.9
2014-Aug-19 15:31N 32°05' W 117°33'1212.1
2014-Aug-19 14:33N 32°16' W 117°38'1211.8
2014-Aug-19 13:33N 32°27' W 117°43'1111.3
2014-Aug-19 12:33N 32°38' W 117°48'1111.2
2014-Aug-19 11:33N 32°48' W 117°51'1111.3
2014-Aug-19 10:33N 32°59' W 117°56'1211.7
2014-Aug-19 09:33N 33°10' W 118°01'1211.7
2014-Aug-19 08:33N 33°21' W 118°07'1211.6
2014-Aug-19 07:33N 33°31' W 118°11'1110.7
2014-Aug-19 06:33N 33°42' W 118°11'3 2.4
2014-Aug-19 05:27N 33°45' W 118°13'0 0.0
2014-Aug-19 04:33N 33°45' W 118°13'0 0.0
2014-Aug-19 03:33N 33°45' W 118°13'0 0.0
2014-Aug-19 02:33N 33°45' W 118°13'0 0.0
2014-Aug-19 01:33N 33°45' W 118°13'0 0.0
2014-Aug-19 00:33N 33°45' W 118°13'0 0.0
2014-Aug-18 23:24N 33°45' W 118°13'0 0.0
2014-Aug-18 22:27N 33°45' W 118°13'0 0.0
2014-Aug-18 21:33N 33°45' W 118°13'0 0.0
2014-Aug-18 20:27N 33°45' W 118°13'0 0.0
2014-Aug-18 19:33N 33°45' W 118°13'0 0.0
2014-Aug-18 17:24N 33°45' W 118°13'0 0.0
2014-Aug-18 16:33N 33°45' W 118°13'0 0.0
2014-Aug-18 15:30N 33°45' W 118°13'1 0.4
2014-Aug-18 12:33N 33°44' W 118°12'3 3.0
2014-Aug-18 11:30N 33°42' W 118°09'0 0.0
2014-Aug-18 10:33N 33°42' W 118°09'0 0.0
2014-Aug-18 08:12N 33°42' W 118°09'0 0.0
2014-Aug-18 07:24N 33°42' W 118°09'0 0.0
2014-Aug-18 06:33N 33°42' W 118°09'0 0.0
2014-Aug-18 05:33N 33°42' W 118°09'0 0.0
2014-Aug-18 04:24N 33°42' W 118°09'0 0.0
2014-Aug-18 03:27N 33°42' W 118°09'0 0.0
2014-Aug-18 02:24N 33°42' W 118°09'0 0.0
2014-Aug-18 01:33N 33°42' W 118°09'0 0.1
2014-Aug-18 00:24N 33°42' W 118°09'27 4.6
2014-Aug-17 18:33N 33°45' W 118°41'1211.8
2014-Aug-17 17:34N 33°51' W 118°53'1211.5
2014-Aug-17 16:33N 33°56' W 119°05'1312.6
2014-Aug-17 15:33N 34°02' W 119°19'1615.8
2014-Aug-17 14:33N 34°07' W 119°37'1615.7
2014-Aug-17 13:33N 34°11' W 119°55'1615.8
2014-Aug-17 12:33N 34°15' W 120°14'1615.8
2014-Aug-17 11:33N 34°19' W 120°32'1615.9
2014-Aug-17 10:33N 34°23' W 120°51'1615.9
2014-Aug-17 09:32N 34°27' W 121°10'1715.7
2014-Aug-17 08:27N 34°31' W 121°30'1713.8
2014-Aug-17 07:13N 34°34' W 121°50'913.8
2014-Aug-17 06:33N 34°36' W 122°01'1413.7
2014-Aug-17 05:33N 34°38' W 122°18'1615.7
2014-Aug-17 04:33N 34°41' W 122°36'1616.4
2014-Aug-17 03:33N 34°44' W 122°56'1716.5
2014-Aug-17 02:33N 34°47' W 123°16'1716.0
2014-Aug-17 01:31N 34°49' W 123°36'1515.8
2014-Aug-17 00:33N 34°52' W 123°54'1715.8
2014-Aug-16 23:28N 34°56' W 124°15'3515.7
2014-Aug-16 21:15N 35°02' W 124°56'3015.8
2014-Aug-16 19:22N 35°08' W 125°32'3015.8
2014-Aug-16 17:29N 35°15' W 126°07'65215.7
2014-Aug-15 00:00N 40°18' W 138°18'59216.4 180 / 131023.010.8 1.020.013.523.0
2014-Aug-13 12:00N 43°36' W 150°48'18615.5 190 / 191014.5 5.4 2.514.012.317.2
2014-Aug-13 00:00N 44°18' W 155°00'   200 / 191015.0 5.4 3.014.012.316.3

Dump ship's entire track history